Delta Billie — WDE8059 — position and weather

sailwx.info

Track history (hours):
 
Tides and Currents Weather Stations Pressure Air Temp Water Temp Dewpoint Dewpoint Depression Visibility Wind Speed Wind Dir Waves Ship Positions

Delta Billie

Owner: Baydelta Maritime, San Francicso, CA. More information available from US FCC via Universal Licensing System and Coast Guard Vessel Documentation Center.

Last reported at 2016-Dec-02 21:10 UTC. Time now 2016-Dec-03 00:25 UTC.
Position N 38°04' W 122°13'.

Length 30 m; draft 5.5 m.

Type: Towing. MMSI: 367401030.

Date/timePositionNaut miles runAvg speedWind from/ knotsBaromVisibWave heightAir tempDewpointWater temp
2016-Dec-02 21:10N 38°04' W 122°13'5 8.2
2016-Dec-02 20:33N 38°03' W 122°20'9 8.5
2016-Dec-02 19:32N 37°56' W 122°27'7 7.7
2016-Dec-02 18:33N 37°49' W 122°27'4 3.9
2016-Dec-02 17:33N 37°49' W 122°31'6 6.0
2016-Dec-02 16:33N 37°48' W 122°24'0 0.0
2016-Dec-02 15:33N 37°48' W 122°24'0 0.0
2016-Dec-02 14:33N 37°48' W 122°24'3 3.5
2016-Dec-02 13:33N 37°49' W 122°20'0 0.3
2016-Dec-02 12:33N 37°49' W 122°20'0 0.0
2016-Dec-02 11:33N 37°49' W 122°20'0 0.0
2016-Dec-02 10:33N 37°49' W 122°20'0 0.0
2016-Dec-02 09:33N 37°49' W 122°20'0 0.0
2016-Dec-02 08:33N 37°49' W 122°20'0 0.0
2016-Dec-02 07:33N 37°49' W 122°20'0 0.0
2016-Dec-02 06:33N 37°49' W 122°20'5 5.5
2016-Dec-02 05:33N 37°49' W 122°27'1 1.3
2016-Dec-02 04:33N 37°49' W 122°28'4 4.0
2016-Dec-02 03:33N 37°50' W 122°23'9 9.1
2016-Dec-02 02:31N 37°59' W 122°26'10 9.9
2016-Dec-02 01:33N 38°04' W 122°16'0 0.2
2016-Dec-01 23:32N 38°04' W 122°16'1010.1
2016-Dec-01 22:33N 37°58' W 122°26'10 9.6
2016-Dec-01 21:33N 37°48' W 122°24'0 0.0
2016-Dec-01 20:33N 37°48' W 122°24'0 0.0
2016-Dec-01 19:33N 37°48' W 122°24'0 0.0
2016-Dec-01 18:33N 37°48' W 122°24'0 0.0
2016-Dec-01 17:33N 37°48' W 122°24'0 0.0
2016-Dec-01 16:33N 37°48' W 122°24'0 0.0
2016-Dec-01 15:33N 37°48' W 122°24'3 2.8
2016-Dec-01 14:33N 37°48' W 122°20'3 2.8
2016-Dec-01 13:33N 37°48' W 122°24'0 0.0
2016-Dec-01 12:33N 37°48' W 122°24'0 0.0
2016-Dec-01 11:33N 37°48' W 122°24'0 0.0
2016-Dec-01 10:33N 37°48' W 122°24'0 0.0
2016-Dec-01 09:33N 37°48' W 122°24'0 0.0
2016-Dec-01 08:33N 37°48' W 122°24'0 0.0
2016-Dec-01 07:33N 37°48' W 122°24'0 0.0
2016-Dec-01 06:33N 37°48' W 122°24'0 0.0
2016-Dec-01 05:33N 37°48' W 122°24'0 0.0
2016-Dec-01 04:33N 37°48' W 122°24'0 0.0
2016-Dec-01 03:33N 37°48' W 122°24'0 0.0
2016-Dec-01 02:33N 37°48' W 122°24'0 0.0
2016-Dec-01 01:33N 37°48' W 122°24'0 0.0
2016-Dec-01 00:33N 37°48' W 122°24'0 0.0
2016-Nov-30 23:33N 37°48' W 122°24'0 0.0
2016-Nov-30 22:33N 37°48' W 122°24'0 0.0
2016-Nov-30 21:33N 37°48' W 122°24'3 3.5
2016-Nov-30 20:33N 37°52' W 122°24'8 7.9
2016-Nov-30 19:30N 37°60' W 122°25'7 7.8
2016-Nov-30 18:33N 38°03' W 122°16'2 0.2
2016-Nov-30 09:30N 38°03' W 122°19'1111.2
2016-Nov-30 08:33N 37°54' W 122°25'6 5.9
2016-Nov-30 07:34N 37°48' W 122°24'0 0.0
2016-Nov-30 06:33N 37°48' W 122°24'0 0.0
2016-Nov-30 05:33N 37°48' W 122°24'0 0.0
2016-Nov-30 04:33N 37°48' W 122°24'0 0.0
2016-Nov-30 03:33N 37°48' W 122°24'0 0.0
2016-Nov-30 02:33N 37°48' W 122°24'0 0.0
2016-Nov-30 01:33N 37°48' W 122°24'3 3.4
2016-Nov-30 00:33N 37°49' W 122°20'0 0.2
2016-Nov-29 23:33N 37°49' W 122°20'7 6.7
2016-Nov-29 22:33N 37°54' W 122°25'10 9.8
2016-Nov-29 21:33N 38°03' W 122°19'9 4.1
2016-Nov-29 19:24N 38°02' W 122°08'6 6.2
2016-Nov-29 18:29N 38°04' W 122°15'5 4.7
2016-Nov-29 17:25N 38°02' W 122°09'1 0.1
2016-Nov-29 10:12N 38°02' W 122°08'0 0.0
2016-Nov-29 09:32N 38°02' W 122°08'1 0.5
2016-Nov-29 08:23N 38°02' W 122°08'2 1.5
2016-Nov-29 07:13N 38°02' W 122°10'7 8.9
2016-Nov-29 06:24N 38°03' W 122°19'8 9.9
2016-Nov-29 05:33N 37°56' W 122°26'1 0.9
2016-Nov-29 04:33N 37°56' W 122°25'0 0.0
2016-Nov-29 03:32N 37°56' W 122°25'0 0.0
2016-Nov-29 02:29N 37°56' W 122°25'4 4.7
2016-Nov-29 01:33N 37°51' W 122°24'4 3.9
2016-Nov-29 00:34N 37°49' W 122°20'3 2.9
2016-Nov-28 23:33N 37°48' W 122°24'0 0.0
2016-Nov-28 22:33N 37°48' W 122°24'1 1.0
2016-Nov-28 21:33N 37°49' W 122°24'0 0.2
2016-Nov-28 20:33N 37°49' W 122°24'0 0.2
2016-Nov-28 19:33N 37°49' W 122°24'0 0.2
2016-Nov-28 18:33N 37°49' W 122°23'1 1.1
2016-Nov-28 17:33N 37°48' W 122°24'4 3.7
2016-Nov-28 16:33N 37°52' W 122°24'4 3.8
2016-Nov-28 15:33N 37°56' W 122°25'3 2.7
2016-Nov-28 14:34N 37°53' W 122°25'2 2.4
2016-Nov-28 13:33N 37°55' W 122°25'0 0.0
2016-Nov-28 12:33N 37°55' W 122°25'0 0.0
2016-Nov-28 11:33N 37°55' W 122°25'0 0.0
2016-Nov-28 10:33N 37°55' W 122°25'0 0.0
2016-Nov-28 09:33N 37°55' W 122°25'0 0.0
2016-Nov-28 08:33N 37°55' W 122°25'0 0.0
2016-Nov-28 07:33N 37°55' W 122°25'0 0.0
2016-Nov-28 06:33N 37°55' W 122°25'0 0.1
2016-Nov-28 05:33N 37°55' W 122°25'0 0.0
2016-Nov-28 04:33N 37°55' W 122°25'2 1.5
2016-Nov-28 03:33N 37°54' W 122°25'2 1.6
2016-Nov-28 02:33N 37°55' W 122°25'0 0.0
2016-Nov-28 01:33N 37°55' W 122°25'1 0.6
2016-Nov-28 00:33N 37°55' W 122°25'3 2.7
2016-Nov-27 23:33N 37°55' W 122°22'2 1.6
2016-Nov-27 22:33N 37°54' W 122°24'9 9.2
2016-Nov-27 21:33N 38°03' W 122°19'5 0.4
2016-Nov-27 08:22N 38°04' W 122°13'1011.6
2016-Nov-27 07:30N 38°00' W 122°25'5 4.9
2016-Nov-27 06:33N 37°56' W 122°25'0 0.1
2016-Nov-27 05:33N 37°56' W 122°25'0 0.0
2016-Nov-27 04:32N 37°56' W 122°25'0 0.0
2016-Nov-27 01:33N 37°56' W 122°25'0 0.0
2016-Nov-27 00:33N 37°56' W 122°25'0 0.0
2016-Nov-26 23:32N 37°56' W 122°25'0 0.0
2016-Nov-26 22:25N 37°56' W 122°25'0 0.0
2016-Nov-26 21:30N 37°56' W 122°25'0 0.0
2016-Nov-26 20:31N 37°56' W 122°25'0 0.0
2016-Nov-26 19:33N 37°56' W 122°25'2 2.5
2016-Nov-26 18:33N 37°55' W 122°22'0 0.5
2016-Nov-26 17:33N 37°54' W 122°22'3 2.6
2016-Nov-26 16:33N 37°55' W 122°25'4 4.5
2016-Nov-26 15:33N 37°51' W 122°23'3 3.4
2016-Nov-26 14:33N 37°48' W 122°20'1 0.6
2016-Nov-26 13:33N 37°49' W 122°20'1 0.8
2016-Nov-26 12:33N 37°48' W 122°21'0 0.1
2016-Nov-26 11:33N 37°48' W 122°21'0 0.3
2016-Nov-26 10:33N 37°49' W 122°20'0 0.2
2016-Nov-26 09:33N 37°48' W 122°20'0 0.0
2016-Nov-26 08:33N 37°48' W 122°20'7 7.5
2016-Nov-26 07:34N 37°55' W 122°25'0 0.3
2016-Nov-26 06:33N 37°55' W 122°25'1 0.7
2016-Nov-26 05:33N 37°55' W 122°25'0 0.0
2016-Nov-26 04:33N 37°55' W 122°25'0 0.0
2016-Nov-26 03:33N 37°55' W 122°25'0 0.0
2016-Nov-26 02:33N 37°55' W 122°25'5 4.1
2016-Nov-26 01:26N 37°60' W 122°25'910.0
2016-Nov-26 00:30N 38°04' W 122°14'4 0.8
2016-Nov-25 19:21N 38°02' W 122°09'2 0.7
2016-Nov-25 16:07N 38°03' W 122°12'610.5
2016-Nov-25 15:31N 38°03' W 122°19'9 9.7
2016-Nov-25 14:33N 37°55' W 122°25'7 6.8
2016-Nov-25 13:33N 37°48' W 122°24'0 0.0
2016-Nov-25 12:33N 37°48' W 122°24'0 0.0
2016-Nov-25 11:33N 37°48' W 122°24'0 0.0
2016-Nov-25 10:33N 37°48' W 122°24'0 0.0
2016-Nov-25 09:33N 37°48' W 122°24'0 0.0
2016-Nov-25 08:33N 37°48' W 122°24'0 0.0
2016-Nov-25 07:33N 37°48' W 122°24'0 0.0
2016-Nov-25 06:33N 37°48' W 122°24'0 0.0
2016-Nov-25 05:33N 37°48' W 122°24'0 0.0
2016-Nov-25 04:33N 37°48' W 122°24'0 0.0
2016-Nov-25 03:33N 37°48' W 122°24'0 0.0
2016-Nov-25 02:33N 37°48' W 122°24'0 0.0
2016-Nov-25 01:33N 37°48' W 122°24'0 0.0
2016-Nov-25 00:33N 37°48' W 122°24'3 2.7
2016-Nov-24 23:33N 37°48' W 122°21'3 2.7
2016-Nov-24 22:33N 37°48' W 122°24'0 0.0
2016-Nov-24 21:33N 37°48' W 122°24'0 0.0
2016-Nov-24 20:33N 37°48' W 122°24'8 7.8
2016-Nov-24 19:33N 37°56' W 122°26'9 9.5
2016-Nov-24 18:33N 38°03' W 122°18'2 1.9
2016-Nov-24 17:33N 38°03' W 122°16'6 3.8
2016-Nov-24 16:04N 38°01' W 122°23'5 8.9
2016-Nov-24 15:33N 37°58' W 122°26'9 9.1
2016-Nov-24 14:33N 37°49' W 122°22'1 1.3
2016-Nov-24 13:33N 37°48' W 122°21'1 1.1
2016-Nov-24 12:33N 37°48' W 122°19'1 0.6
2016-Nov-24 11:34N 37°48' W 122°20'0 0.4
2016-Nov-24 10:33N 37°48' W 122°21'0 0.0
2016-Nov-24 09:33N 37°48' W 122°21'0 0.0
2016-Nov-24 08:33N 37°48' W 122°21'0 0.0
2016-Nov-24 07:33N 37°48' W 122°21'0 0.0
2016-Nov-24 06:33N 37°48' W 122°21'0 0.0
2016-Nov-24 05:33N 37°48' W 122°21'0 0.0
2016-Nov-24 04:33N 37°48' W 122°21'3 3.1
2016-Nov-24 03:33N 37°45' W 122°21'8 8.0
2016-Nov-24 02:33N 37°52' W 122°25'3 3.2
2016-Nov-24 01:33N 37°54' W 122°22'1 0.5
2016-Nov-24 00:33N 37°55' W 122°22'0 0.1
2016-Nov-23 23:33N 37°55' W 122°22'0 0.2
2016-Nov-23 22:33N 37°55' W 122°22'0 0.0
2016-Nov-23 21:33N 37°55' W 122°22'1 0.8
2016-Nov-23 20:33N 37°54' W 122°22'6 6.2
2016-Nov-23 19:33N 37°48' W 122°24'0 0.0
2016-Nov-23 18:33N 37°48' W 122°24'0 0.0
2016-Nov-23 17:33N 37°48' W 122°24'0 0.0
2016-Nov-23 16:33N 37°48' W 122°24'0 0.0
2016-Nov-23 15:33N 37°48' W 122°24'0 0.0
2016-Nov-23 14:33N 37°48' W 122°24'0 0.0
2016-Nov-23 13:33N 37°48' W 122°24'4 3.8
2016-Nov-23 12:33N 37°48' W 122°19'1 0.6
2016-Nov-23 11:33N 37°48' W 122°20'3 3.2
2016-Nov-23 10:33N 37°48' W 122°24'0 0.0
2016-Nov-23 09:33N 37°48' W 122°24'0 0.0
2016-Nov-23 08:33N 37°48' W 122°24'0 0.0
2016-Nov-23 07:33N 37°48' W 122°24'0 0.0
2016-Nov-23 06:33N 37°48' W 122°24'0 0.0
2016-Nov-23 03:33N 37°48' W 122°24'0 0.0
2016-Nov-23 02:33N 37°48' W 122°24'0 0.0
2016-Nov-23 00:33N 37°48' W 122°24'0 0.0
2016-Nov-22 23:33N 37°48' W 122°24'0 0.0
2016-Nov-22 22:33N 37°48' W 122°24'  
Track history (hours):
 
Tides and Currents Weather Stations Pressure Air Temp Water Temp Dewpoint Dewpoint Depression Visibility Wind Speed Wind Dir Waves Ship Positions

Delta Billie

Owner: Baydelta Maritime, San Francicso, CA. More information available from US FCC via Universal Licensing System and Coast Guard Vessel Documentation Center.

Last reported at 2016-Dec-02 21:10 UTC. Time now 2016-Dec-03 00:25 UTC.
Position N 38°04' W 122°13'.

Length 30 m; draft 5.5 m.

Type: Towing. MMSI: 367401030.

Date/timePositionNaut miles runAvg speedWind from/ knotsBaromVisibWave heightAir tempDewpointWater temp
2016-Dec-02 21:10N 38°04' W 122°13'5 8.2
2016-Dec-02 20:33N 38°03' W 122°20'9 8.5
2016-Dec-02 19:32N 37°56' W 122°27'7 7.7
2016-Dec-02 18:33N 37°49' W 122°27'4 3.9
2016-Dec-02 17:33N 37°49' W 122°31'6 6.0
2016-Dec-02 16:33N 37°48' W 122°24'0 0.0
2016-Dec-02 15:33N 37°48' W 122°24'0 0.0
2016-Dec-02 14:33N 37°48' W 122°24'3 3.5
2016-Dec-02 13:33N 37°49' W 122°20'0 0.3
2016-Dec-02 12:33N 37°49' W 122°20'0 0.0
2016-Dec-02 11:33N 37°49' W 122°20'0 0.0
2016-Dec-02 10:33N 37°49' W 122°20'0 0.0
2016-Dec-02 09:33N 37°49' W 122°20'0 0.0
2016-Dec-02 08:33N 37°49' W 122°20'0 0.0
2016-Dec-02 07:33N 37°49' W 122°20'0 0.0
2016-Dec-02 06:33N 37°49' W 122°20'5 5.5
2016-Dec-02 05:33N 37°49' W 122°27'1 1.3
2016-Dec-02 04:33N 37°49' W 122°28'4 4.0
2016-Dec-02 03:33N 37°50' W 122°23'9 9.1
2016-Dec-02 02:31N 37°59' W 122°26'10 9.9
2016-Dec-02 01:33N 38°04' W 122°16'0 0.2
2016-Dec-01 23:32N 38°04' W 122°16'1010.1
2016-Dec-01 22:33N 37°58' W 122°26'10 9.6
2016-Dec-01 21:33N 37°48' W 122°24'0 0.0
2016-Dec-01 20:33N 37°48' W 122°24'0 0.0
2016-Dec-01 19:33N 37°48' W 122°24'0 0.0
2016-Dec-01 18:33N 37°48' W 122°24'0 0.0
2016-Dec-01 17:33N 37°48' W 122°24'0 0.0
2016-Dec-01 16:33N 37°48' W 122°24'0 0.0
2016-Dec-01 15:33N 37°48' W 122°24'3 2.8
2016-Dec-01 14:33N 37°48' W 122°20'3 2.8
2016-Dec-01 13:33N 37°48' W 122°24'0 0.0
2016-Dec-01 12:33N 37°48' W 122°24'0 0.0
2016-Dec-01 11:33N 37°48' W 122°24'0 0.0
2016-Dec-01 10:33N 37°48' W 122°24'0 0.0
2016-Dec-01 09:33N 37°48' W 122°24'0 0.0
2016-Dec-01 08:33N 37°48' W 122°24'0 0.0
2016-Dec-01 07:33N 37°48' W 122°24'0 0.0
2016-Dec-01 06:33N 37°48' W 122°24'0 0.0
2016-Dec-01 05:33N 37°48' W 122°24'0 0.0
2016-Dec-01 04:33N 37°48' W 122°24'0 0.0
2016-Dec-01 03:33N 37°48' W 122°24'0 0.0
2016-Dec-01 02:33N 37°48' W 122°24'0 0.0
2016-Dec-01 01:33N 37°48' W 122°24'0 0.0
2016-Dec-01 00:33N 37°48' W 122°24'0 0.0
2016-Nov-30 23:33N 37°48' W 122°24'0 0.0
2016-Nov-30 22:33N 37°48' W 122°24'0 0.0
2016-Nov-30 21:33N 37°48' W 122°24'3 3.5
2016-Nov-30 20:33N 37°52' W 122°24'8 7.9
2016-Nov-30 19:30N 37°60' W 122°25'7 7.8
2016-Nov-30 18:33N 38°03' W 122°16'2 0.2
2016-Nov-30 09:30N 38°03' W 122°19'1111.2
2016-Nov-30 08:33N 37°54' W 122°25'6 5.9
2016-Nov-30 07:34N 37°48' W 122°24'0 0.0
2016-Nov-30 06:33N 37°48' W 122°24'0 0.0
2016-Nov-30 05:33N 37°48' W 122°24'0 0.0
2016-Nov-30 04:33N 37°48' W 122°24'0 0.0
2016-Nov-30 03:33N 37°48' W 122°24'0 0.0
2016-Nov-30 02:33N 37°48' W 122°24'0 0.0
2016-Nov-30 01:33N 37°48' W 122°24'3 3.4
2016-Nov-30 00:33N 37°49' W 122°20'0 0.2
2016-Nov-29 23:33N 37°49' W 122°20'7 6.7
2016-Nov-29 22:33N 37°54' W 122°25'10 9.8
2016-Nov-29 21:33N 38°03' W 122°19'9 4.1
2016-Nov-29 19:24N 38°02' W 122°08'6 6.2
2016-Nov-29 18:29N 38°04' W 122°15'5 4.7
2016-Nov-29 17:25N 38°02' W 122°09'1 0.1
2016-Nov-29 10:12N 38°02' W 122°08'0 0.0
2016-Nov-29 09:32N 38°02' W 122°08'1 0.5
2016-Nov-29 08:23N 38°02' W 122°08'2 1.5
2016-Nov-29 07:13N 38°02' W 122°10'7 8.9
2016-Nov-29 06:24N 38°03' W 122°19'8 9.9
2016-Nov-29 05:33N 37°56' W 122°26'1 0.9
2016-Nov-29 04:33N 37°56' W 122°25'0 0.0
2016-Nov-29 03:32N 37°56' W 122°25'0 0.0
2016-Nov-29 02:29N 37°56' W 122°25'4 4.7
2016-Nov-29 01:33N 37°51' W 122°24'4 3.9
2016-Nov-29 00:34N 37°49' W 122°20'3 2.9
2016-Nov-28 23:33N 37°48' W 122°24'0 0.0
2016-Nov-28 22:33N 37°48' W 122°24'1 1.0
2016-Nov-28 21:33N 37°49' W 122°24'0 0.2
2016-Nov-28 20:33N 37°49' W 122°24'0 0.2
2016-Nov-28 19:33N 37°49' W 122°24'0 0.2
2016-Nov-28 18:33N 37°49' W 122°23'1 1.1
2016-Nov-28 17:33N 37°48' W 122°24'4 3.7
2016-Nov-28 16:33N 37°52' W 122°24'4 3.8
2016-Nov-28 15:33N 37°56' W 122°25'3 2.7
2016-Nov-28 14:34N 37°53' W 122°25'2 2.4
2016-Nov-28 13:33N 37°55' W 122°25'0 0.0
2016-Nov-28 12:33N 37°55' W 122°25'0 0.0
2016-Nov-28 11:33N 37°55' W 122°25'0 0.0
2016-Nov-28 10:33N 37°55' W 122°25'0 0.0
2016-Nov-28 09:33N 37°55' W 122°25'0 0.0
2016-Nov-28 08:33N 37°55' W 122°25'0 0.0
2016-Nov-28 07:33N 37°55' W 122°25'0 0.0
2016-Nov-28 06:33N 37°55' W 122°25'0 0.1
2016-Nov-28 05:33N 37°55' W 122°25'0 0.0
2016-Nov-28 04:33N 37°55' W 122°25'2 1.5
2016-Nov-28 03:33N 37°54' W 122°25'2 1.6
2016-Nov-28 02:33N 37°55' W 122°25'0 0.0
2016-Nov-28 01:33N 37°55' W 122°25'1 0.6
2016-Nov-28 00:33N 37°55' W 122°25'3 2.7
2016-Nov-27 23:33N 37°55' W 122°22'2 1.6
2016-Nov-27 22:33N 37°54' W 122°24'9 9.2
2016-Nov-27 21:33N 38°03' W 122°19'5 0.4
2016-Nov-27 08:22N 38°04' W 122°13'1011.6
2016-Nov-27 07:30N 38°00' W 122°25'5 4.9
2016-Nov-27 06:33N 37°56' W 122°25'0 0.1
2016-Nov-27 05:33N 37°56' W 122°25'0 0.0
2016-Nov-27 04:32N 37°56' W 122°25'0 0.0
2016-Nov-27 01:33N 37°56' W 122°25'0 0.0
2016-Nov-27 00:33N 37°56' W 122°25'0 0.0
2016-Nov-26 23:32N 37°56' W 122°25'0 0.0
2016-Nov-26 22:25N 37°56' W 122°25'0 0.0
2016-Nov-26 21:30N 37°56' W 122°25'0 0.0
2016-Nov-26 20:31N 37°56' W 122°25'0 0.0
2016-Nov-26 19:33N 37°56' W 122°25'2 2.5
2016-Nov-26 18:33N 37°55' W 122°22'0 0.5
2016-Nov-26 17:33N 37°54' W 122°22'3 2.6
2016-Nov-26 16:33N 37°55' W 122°25'4 4.5
2016-Nov-26 15:33N 37°51' W 122°23'3 3.4
2016-Nov-26 14:33N 37°48' W 122°20'1 0.6
2016-Nov-26 13:33N 37°49' W 122°20'1 0.8
2016-Nov-26 12:33N 37°48' W 122°21'0 0.1
2016-Nov-26 11:33N 37°48' W 122°21'0 0.3
2016-Nov-26 10:33N 37°49' W 122°20'0 0.2
2016-Nov-26 09:33N 37°48' W 122°20'0 0.0
2016-Nov-26 08:33N 37°48' W 122°20'7 7.5
2016-Nov-26 07:34N 37°55' W 122°25'0 0.3
2016-Nov-26 06:33N 37°55' W 122°25'1 0.7
2016-Nov-26 05:33N 37°55' W 122°25'0 0.0
2016-Nov-26 04:33N 37°55' W 122°25'0 0.0
2016-Nov-26 03:33N 37°55' W 122°25'0 0.0
2016-Nov-26 02:33N 37°55' W 122°25'5 4.1
2016-Nov-26 01:26N 37°60' W 122°25'910.0
2016-Nov-26 00:30N 38°04' W 122°14'4 0.8
2016-Nov-25 19:21N 38°02' W 122°09'2 0.7
2016-Nov-25 16:07N 38°03' W 122°12'610.5
2016-Nov-25 15:31N 38°03' W 122°19'9 9.7
2016-Nov-25 14:33N 37°55' W 122°25'7 6.8
2016-Nov-25 13:33N 37°48' W 122°24'0 0.0
2016-Nov-25 12:33N 37°48' W 122°24'0 0.0
2016-Nov-25 11:33N 37°48' W 122°24'0 0.0
2016-Nov-25 10:33N 37°48' W 122°24'0 0.0
2016-Nov-25 09:33N 37°48' W 122°24'0 0.0
2016-Nov-25 08:33N 37°48' W 122°24'0 0.0
2016-Nov-25 07:33N 37°48' W 122°24'0 0.0
2016-Nov-25 06:33N 37°48' W 122°24'0 0.0
2016-Nov-25 05:33N 37°48' W 122°24'0 0.0
2016-Nov-25 04:33N 37°48' W 122°24'0 0.0
2016-Nov-25 03:33N 37°48' W 122°24'0 0.0
2016-Nov-25 02:33N 37°48' W 122°24'0 0.0
2016-Nov-25 01:33N 37°48' W 122°24'0 0.0
2016-Nov-25 00:33N 37°48' W 122°24'3 2.7
2016-Nov-24 23:33N 37°48' W 122°21'3 2.7
2016-Nov-24 22:33N 37°48' W 122°24'0 0.0
2016-Nov-24 21:33N 37°48' W 122°24'0 0.0
2016-Nov-24 20:33N 37°48' W 122°24'8 7.8
2016-Nov-24 19:33N 37°56' W 122°26'9 9.5
2016-Nov-24 18:33N 38°03' W 122°18'2 1.9
2016-Nov-24 17:33N 38°03' W 122°16'6 3.8
2016-Nov-24 16:04N 38°01' W 122°23'5 8.9
2016-Nov-24 15:33N 37°58' W 122°26'9 9.1
2016-Nov-24 14:33N 37°49' W 122°22'1 1.3
2016-Nov-24 13:33N 37°48' W 122°21'1 1.1
2016-Nov-24 12:33N 37°48' W 122°19'1 0.6
2016-Nov-24 11:34N 37°48' W 122°20'0 0.4
2016-Nov-24 10:33N 37°48' W 122°21'0 0.0
2016-Nov-24 09:33N 37°48' W 122°21'0 0.0
2016-Nov-24 08:33N 37°48' W 122°21'0 0.0
2016-Nov-24 07:33N 37°48' W 122°21'0 0.0
2016-Nov-24 06:33N 37°48' W 122°21'0 0.0
2016-Nov-24 05:33N 37°48' W 122°21'0 0.0
2016-Nov-24 04:33N 37°48' W 122°21'3 3.1
2016-Nov-24 03:33N 37°45' W 122°21'8 8.0
2016-Nov-24 02:33N 37°52' W 122°25'3 3.2
2016-Nov-24 01:33N 37°54' W 122°22'1 0.5
2016-Nov-24 00:33N 37°55' W 122°22'0 0.1
2016-Nov-23 23:33N 37°55' W 122°22'0 0.2
2016-Nov-23 22:33N 37°55' W 122°22'0 0.0
2016-Nov-23 21:33N 37°55' W 122°22'1 0.8
2016-Nov-23 20:33N 37°54' W 122°22'6 6.2
2016-Nov-23 19:33N 37°48' W 122°24'0 0.0
2016-Nov-23 18:33N 37°48' W 122°24'0 0.0
2016-Nov-23 17:33N 37°48' W 122°24'0 0.0
2016-Nov-23 16:33N 37°48' W 122°24'0 0.0
2016-Nov-23 15:33N 37°48' W 122°24'0 0.0
2016-Nov-23 14:33N 37°48' W 122°24'0 0.0
2016-Nov-23 13:33N 37°48' W 122°24'4 3.8
2016-Nov-23 12:33N 37°48' W 122°19'1 0.6
2016-Nov-23 11:33N 37°48' W 122°20'3 3.2
2016-Nov-23 10:33N 37°48' W 122°24'0 0.0
2016-Nov-23 09:33N 37°48' W 122°24'0 0.0
2016-Nov-23 08:33N 37°48' W 122°24'0 0.0
2016-Nov-23 07:33N 37°48' W 122°24'0 0.0
2016-Nov-23 06:33N 37°48' W 122°24'0 0.0
2016-Nov-23 03:33N 37°48' W 122°24'0 0.0
2016-Nov-23 02:33N 37°48' W 122°24'0 0.0
2016-Nov-23 00:33N 37°48' W 122°24'0 0.0
2016-Nov-22 23:33N 37°48' W 122°24'0 0.0
2016-Nov-22 22:33N 37°48' W 122°24'  

Dump ship's entire track history